Time;durP1;ratioP1;P1;durP2;ratioP2;P2;SDS_P1;SDS_P2;PMS_P1;PMS_P2;Temp;Humidity;BMP_temperature;BMP_pressure;BME280_temperature;BME280_humidity;BME280_pressure;Samples;Min_cycle;Max_cycle;Signal;HPM_P1;HPM_P2
2022/06/06 00:00:03;;;;;;;196.98;40.85;;;;;;;;;;6186009;23;20081;-88
2022/06/06 00:02:32;;;;;;;128.50;36.47;;;;;;;;;;6184528;23;20014;-87
2022/06/06 00:04:59;;;;;;;152.57;37.20;;;;;;;;;;6184573;23;20026;-87
2022/06/06 00:07:30;;;;;;;96.95;30.08;;;;;;;;;;6185486;23;20061;-86
2022/06/06 00:10:00;;;;;;;160.50;35.42;;;;;;;;;;6185459;23;20017;-87
2022/06/06 00:12:35;;;;;;;158.07;35.35;;;;;;;;;;6186338;23;20006;-86
2022/06/06 00:15:03;;;;;;;118.40;31.33;;;;;;;;;;6186595;23;20057;-87
2022/06/06 00:17:36;;;;;;;142.02;33.25;;;;;;;;;;6186076;23;20026;-86
2022/06/06 00:20:04;;;;;;;120.43;29.80;;;;;;;;;;6186255;23;20012;-87
2022/06/06 00:22:31;;;;;;;95.95;28.48;;;;;;;;;;6185794;23;20022;-88
2022/06/06 00:25:00;;;;;;;165.57;33.85;;;;;;;;;;6187369;23;20013;-85
2022/06/06 00:27:27;;;;;;;111.15;29.95;;;;;;;;;;6186096;23;20061;-87
2022/06/06 00:29:54;;;;;;;114.50;29.70;;;;;;;;;;6186697;23;20014;-87
2022/06/06 00:35:08;;;;;;;132.50;29.77;;;;;;;;;;6185949;23;20014;-86
2022/06/06 00:37:38;;;;;;;98.43;28.10;;;;;;;;;;6186383;23;20009;-86
2022/06/06 00:40:10;;;;;;;117.70;29.60;;;;;;;;;;6185287;23;20069;-86
2022/06/06 00:42:39;;;;;;;91.68;27.15;;;;;;;;;;6186533;23;20018;-86
2022/06/06 00:45:15;;;;;;;163.73;33.92;;;;;;;;;;6183178;23;20025;-86
2022/06/06 00:47:42;;;;;;;98.47;29.98;;;;;;;;;;6184050;23;20000;-86
2022/06/06 00:50:16;;;;;;;136.43;30.90;;;;;;;;;;6186061;23;20002;-85
2022/06/06 00:52:54;;;;;;;;;;;;;;;;;;;;;
2022/06/06 00:55:27;;;;;;;151.15;32.67;;;;;;;;;;6187183;23;20022;-86
2022/06/06 00:57:59;;;;;;;129.35;31.45;;;;;;;;;;6185471;23;20365;-86
2022/06/06 01:00:28;;;;;;;139.73;30.45;;;;;;;;;;6186725;23;20021;-86
2022/06/06 01:03:03;;;;;;;104.53;28.33;;;;;;;;;;6186728;23;20001;-86
2022/06/06 01:05:32;;;;;;;129.02;29.08;;;;;;;;;;6186042;23;20025;-87
2022/06/06 01:08:01;;;;;;;137.43;30.40;;;;;;;;;;6186084;23;20454;-86
2022/06/06 01:10:29;;;;;;;149.10;30.55;;;;;;;;;;6184682;23;20010;-88
2022/06/06 01:13:08;;;;;;;139.40;31.33;;;;;;;;;;6186906;23;20046;-88
2022/06/06 01:19:11;;;;;;;103.03;27.98;;;;;;;;;;6187273;23;20006;-86
2022/06/06 01:22:00;;;;;;;89.00;25.55;;;;;;;;;;6160121;23;20041;-87
2022/06/06 01:24:35;;;;;;;104.40;28.23;;;;;;;;;;6160413;23;20006;-87
2022/06/06 01:27:24;;;;;;;80.82;26.13;;;;;;;;;;6159444;23;20064;-87
2022/06/06 01:30:03;;;;;;;89.30;27.30;;;;;;;;;;6160079;23;20006;-86
2022/06/06 01:32:37;;;;;;;156.75;31.05;;;;;;;;;;6158747;23;20065;-87
2022/06/06 01:35:10;;;;;;;125.50;30.55;;;;;;;;;;6159250;23;20069;-87
2022/06/06 01:37:39;;;;;;;142.00;30.45;;;;;;;;;;6160099;23;20022;-87
2022/06/06 01:40:13;;;;;;;175.93;31.38;;;;;;;;;;6180337;23;20014;-86
2022/06/06 01:42:48;;;;;;;114.30;27.00;;;;;;;;;;6157372;23;20176;-86
2022/06/06 01:45:27;;;;;;;120.03;27.05;;;;;;;;;;6159967;23;20006;-87
2022/06/06 01:48:09;;;;;;;82.88;25.63;;;;;;;;;;6161533;23;20012;-87
2022/06/06 01:50:45;;;;;;;96.70;24.33;;;;;;;;;;6160794;23;20108;-87
2022/06/06 01:53:23;;;;;;;126.97;26.42;;;;;;;;;;6161116;23;20577;-86
2022/06/06 01:55:54;;;;;;;98.40;24.58;;;;;;;;;;6159423;23;20160;-86
2022/06/06 01:58:26;;;;;;;63.00;21.30;;;;;;;;;;6165519;23;20022;-86
2022/06/06 02:00:56;;;;;;;116.28;25.08;;;;;;;;;;6186191;23;20010;-86
2022/06/06 02:03:34;;;;;;;69.72;21.98;;;;;;;;;;6183652;23;20064;-85
2022/06/06 02:06:07;;;;;;;64.18;21.02;;;;;;;;;;6183000;23;20065;-85
2022/06/06 02:08:37;;;;;;;78.95;20.20;;;;;;;;;;6180835;23;20049;-85
2022/06/06 02:11:07;;;;;;;68.97;20.83;;;;;;;;;;6183127;23;20010;-86
2022/06/06 02:13:34;;;;;;;68.07;20.70;;;;;;;;;;6181990;23;20014;-85
2022/06/06 02:16:18;;;;;;;57.63;19.30;;;;;;;;;;6178466;23;20073;-85
2022/06/06 02:18:50;;;;;;;65.20;20.42;;;;;;;;;;6180443;23;20025;-85
2022/06/06 02:21:20;;;;;;;59.30;19.75;;;;;;;;;;6178889;23;20066;-85
2022/06/06 02:23:48;;;;;;;115.63;21.27;;;;;;;;;;6179807;23;20021;-86
2022/06/06 02:26:16;;;;;;;70.30;21.67;;;;;;;;;;6181777;23;20018;-85
2022/06/06 02:28:47;;;;;;;77.28;21.38;;;;;;;;;;6181416;23;20018;-86
2022/06/06 02:31:15;;;;;;;61.22;18.80;;;;;;;;;;6181453;23;20086;-86
2022/06/06 02:33:51;;;;;;;74.15;21.17;;;;;;;;;;6182528;23;19998;-86
2022/06/06 02:36:28;;;;;;;116.57;23.52;;;;;;;;;;6183737;23;20401;-86
2022/06/06 02:38:58;;;;;;;102.53;23.13;;;;;;;;;;6182520;23;20014;-86
2022/06/06 02:41:40;;;;;;;128.68;25.40;;;;;;;;;;6183113;23;20042;-85
2022/06/06 02:44:10;;;;;;;110.90;23.58;;;;;;;;;;6182718;23;20022;-86
2022/06/06 02:46:41;;;;;;;100.63;24.90;;;;;;;;;;6183533;23;20077;-85
2022/06/06 02:49:14;;;;;;;85.90;24.42;;;;;;;;;;6182600;23;20032;-86
2022/06/06 02:51:44;;;;;;;174.57;28.52;;;;;;;;;;6182771;23;20064;-86
2022/06/06 02:54:11;;;;;;;147.15;29.67;;;;;;;;;;6182543;23;20045;-86
2022/06/06 02:56:41;;;;;;;97.97;27.58;;;;;;;;;;6181784;23;20014;-86
2022/06/06 02:59:11;;;;;;;85.43;27.38;;;;;;;;;;6180952;23;20010;-86
2022/06/06 03:01:39;;;;;;;162.30;30.95;;;;;;;;;;6179570;23;20030;-87
2022/06/06 03:04:09;;;;;;;87.40;27.15;;;;;;;;;;6181952;23;20021;-84
2022/06/06 03:06:46;;;;;;;111.18;29.33;;;;;;;;;;6181990;23;20018;-86
2022/06/06 03:09:33;;;;;;;96.60;26.80;;;;;;;;;;6181708;23;20050;-86
2022/06/06 03:12:17;;;;;;;119.82;28.95;;;;;;;;;;6181398;23;20002;-85
2022/06/06 03:15:05;;;;;;;184.93;30.10;;;;;;;;;;6180707;23;19998;-85
2022/06/06 03:20:56;;;;;;;93.00;25.52;;;;;;;;;;6182618;23;20128;-85
2022/06/06 03:23:30;;;;;;;91.78;26.42;;;;;;;;;;6181982;23;20006;-86
2022/06/06 03:26:04;;;;;;;106.90;26.10;;;;;;;;;;6181123;23;20006;-85
2022/06/06 03:28:52;;;;;;;100.38;26.02;;;;;;;;;;6181910;23;20009;-85
2022/06/06 03:31:30;;;;;;;139.27;27.27;;;;;;;;;;6183019;23;20014;-85
2022/06/06 03:34:10;;;;;;;118.03;27.88;;;;;;;;;;6182554;23;20014;-86
2022/06/06 03:36:37;;;;;;;98.30;25.85;;;;;;;;;;6184246;23;20018;-85
2022/06/06 03:39:07;;;;;;;111.97;26.60;;;;;;;;;;6182976;23;20011;-86
2022/06/06 03:41:47;;;;;;;111.78;27.45;;;;;;;;;;6181942;23;20134;-86
2022/06/06 03:44:26;;;;;;;;;;;;;;;;;;;;;
2022/06/06 03:47:07;;;;;;;166.25;29.33;;;;;;;;;;6184455;23;20058;-85
2022/06/06 03:49:38;;;;;;;140.10;28.00;;;;;;;;;;6184382;23;20050;-84
2022/06/06 03:52:30;;;;;;;104.50;27.10;;;;;;;;;;6183998;23;20448;-86
2022/06/06 03:55:08;;;;;;;169.20;29.35;;;;;;;;;;6183885;23;19998;-86
2022/06/06 03:57:39;;;;;;;100.18;26.23;;;;;;;;;;5765439;23;9809453;-84
2022/06/06 04:00:12;;;;;;;136.75;29.33;;;;;;;;;;6185970;23;20010;-85
2022/06/06 04:02:42;;;;;;;126.82;27.65;;;;;;;;;;6186899;23;20008;-86
2022/06/06 04:05:12;;;;;;;83.70;25.40;;;;;;;;;;6186067;23;20021;-86
2022/06/06 04:07:45;;;;;;;84.75;24.40;;;;;;;;;;6184642;23;20024;-86
2022/06/06 04:10:16;;;;;;;142.70;27.55;;;;;;;;;;6184312;23;20018;-85
2022/06/06 04:12:57;;;;;;;113.03;26.05;;;;;;;;;;6185149;23;20025;-85
2022/06/06 04:15:30;;;;;;;89.85;27.05;;;;;;;;;;6185699;23;20002;-86
2022/06/06 04:18:21;;;;;;;91.57;25.40;;;;;;;;;;6184892;23;20073;-85
2022/06/06 04:20:49;;;;;;;130.52;28.42;;;;;;;;;;6185573;23;20010;-84
2022/06/06 04:23:28;;;;;;;109.75;27.85;;;;;;;;;;6185204;23;20033;-86
2022/06/06 04:26:01;;;;;;;77.40;23.30;;;;;;;;;;6185158;23;20018;-86
2022/06/06 04:28:39;;;;;;;88.82;25.77;;;;;;;;;;6185504;23;20057;-86
2022/06/06 04:31:36;;;;;;;98.40;26.20;;;;;;;;;;6185568;23;20008;-86
2022/06/06 04:34:11;;;;;;;74.00;22.65;;;;;;;;;;6180306;23;20017;-85
2022/06/06 04:36:55;;;;;;;81.70;25.05;;;;;;;;;;6184883;23;20013;-86
2022/06/06 04:39:26;;;;;;;119.38;26.38;;;;;;;;;;6185142;23;20010;-86
2022/06/06 04:42:05;;;;;;;94.03;24.83;;;;;;;;;;6185501;23;20018;-86
2022/06/06 04:44:35;;;;;;;59.78;19.50;;;;;;;;;;6184695;23;20014;-85
2022/06/06 04:47:08;;;;;;;58.90;19.90;;;;;;;;;;6185235;23;20013;-86
2022/06/06 04:49:38;;;;;;;57.25;18.60;;;;;;;;;;6185021;23;20014;-86
2022/06/06 04:52:11;;;;;;;49.22;18.90;;;;;;;;;;6184366;23;19994;-86
2022/06/06 04:54:44;;;;;;;57.88;20.67;;;;;;;;;;6184892;23;20010;-86
2022/06/06 04:57:15;;;;;;;;;;;;;;;;;;6183715;23;20062;-85
2022/06/06 04:59:47;;;;;;;65.63;23.48;;;;;;;;;;6183489;23;45328;-86
2022/06/06 05:02:15;;;;;;;66.72;25.35;;;;;;;;;;6184669;23;20005;-86
2022/06/06 05:04:44;;;;;;;73.25;27.48;;;;;;;;;;6185415;23;20006;-85
2022/06/06 05:07:33;;;;;;;68.47;28.05;;;;;;;;;;6183996;23;20065;-85
2022/06/06 05:10:07;;;;;;;58.20;24.80;;;;;;;;;;6185141;23;20060;-86
2022/06/06 05:12:37;;;;;;;48.08;23.05;;;;;;;;;;6185426;23;20074;-86
2022/06/06 05:15:08;;;;;;;;;;;;;;;;;;6185848;23;20107;-84
2022/06/06 05:18:08;;;;;;;61.25;24.73;;;;;;;;;;6184323;23;44584;-85
2022/06/06 05:20:59;;;;;;;41.03;19.75;;;;;;;;;;6186982;23;20022;-86
2022/06/06 05:23:30;;;;;;;45.72;20.70;;;;;;;;;;6186004;23;20017;-85
2022/06/06 05:26:25;;;;;;;40.92;19.10;;;;;;;;;;6184683;23;20005;-86
2022/06/06 05:29:15;;;;;;;51.88;22.75;;;;;;;;;;6185633;23;20006;-85
2022/06/06 05:31:48;;;;;;;43.08;20.75;;;;;;;;;;6185395;23;20010;-86
2022/06/06 05:34:25;;;;;;;29.75;16.90;;;;;;;;;;6185056;23;20014;-86
2022/06/06 05:37:14;;;;;;;31.52;14.93;;;;;;;;;;6185347;23;20017;-85
2022/06/06 05:39:54;;;;;;;40.67;19.17;;;;;;;;;;6185439;23;20006;-86
2022/06/06 05:42:24;;;;;;;28.38;16.48;;;;;;;;;;6185476;23;20002;-84
2022/06/06 05:44:55;;;;;;;29.27;15.38;;;;;;;;;;6185491;23;20013;-86
2022/06/06 05:47:25;;;;;;;26.52;13.65;;;;;;;;;;6185314;23;20065;-85
2022/06/06 05:50:12;;;;;;;23.88;13.90;;;;;;;;;;6184756;23;20008;-84
2022/06/06 05:52:46;;;;;;;23.77;13.77;;;;;;;;;;6181637;23;19997;-84
2022/06/06 05:55:32;;;;;;;23.48;13.75;;;;;;;;;;6182893;23;20100;-84
2022/06/06 05:58:20;;;;;;;21.75;12.63;;;;;;;;;;6185259;23;20010;-84
2022/06/06 06:01:11;;;;;;;25.55;12.85;;;;;;;;;;6184814;23;20009;-86
2022/06/06 06:04:14;;;;;;;21.25;11.73;;;;;;;;;;6158749;23;20106;-85
2022/06/06 06:07:02;;;;;;;19.17;11.02;;;;;;;;;;6100637;23;20011;-84
2022/06/06 06:09:31;;;;;;;19.25;9.52;;;;;;;;;;6100184;23;20023;-84
2022/06/06 06:12:19;;;;;;;17.30;10.32;;;;;;;;;;6101135;23;20046;-84
2022/06/06 06:15:00;;;;;;;22.45;10.30;;;;;;;;;;6095367;23;20761;-83
2022/06/06 06:17:31;;;;;;;20.30;8.38;;;;;;;;;;6097692;23;20018;-84
2022/06/06 06:20:08;;;;;;;17.65;8.00;;;;;;;;;;6100853;23;19999;-84
2022/06/06 06:22:40;;;;;;;18.67;8.40;;;;;;;;;;6100429;23;20030;-83
2022/06/06 06:25:09;;;;;;;;;;;;;;;;;;6100313;23;20026;-84
2022/06/06 06:27:38;;;;;;;15.70;7.25;;;;;;;;;;6096909;23;44728;-84
2022/06/06 06:30:07;;;;;;;17.05;6.20;;;;;;;;;;6099523;23;20001;-84
2022/06/06 06:32:46;;;;;;;19.15;7.55;;;;;;;;;;6100556;23;20019;-84
2022/06/06 06:35:20;;;;;;;14.20;7.07;;;;;;;;;;6099435;23;20024;-83
2022/06/06 06:38:00;;;;;;;14.32;7.25;;;;;;;;;;6097642;23;20019;-85
2022/06/06 06:40:51;;;;;;;13.63;5.90;;;;;;;;;;6128751;23;20041;-84
2022/06/06 06:43:18;;;;;;;16.83;6.03;;;;;;;;;;6178921;23;20029;-84
2022/06/06 06:46:00;;;;;;;13.63;5.55;;;;;;;;;;6181948;23;20035;-83
2022/06/06 06:48:33;;;;;;;9.90;4.90;;;;;;;;;;6184251;23;20024;-84
2022/06/06 06:51:03;;;;;;;10.60;5.10;;;;;;;;;;6183607;23;20014;-84
2022/06/06 06:53:36;;;;;;;16.08;4.97;;;;;;;;;;6185364;23;20042;-84
2022/06/06 06:56:22;;;;;;;14.73;4.60;;;;;;;;;;6184958;23;20030;-84
2022/06/06 06:59:03;;;;;;;11.15;5.22;;;;;;;;;;6185178;23;20066;-84
2022/06/06 07:08:32;;;;;;;8.77;4.65;;;;;;;;;;6185372;23;20077;-83
2022/06/06 07:10:21;;;;;;;12.05;4.93;;;;;;;;;;6185034;23;20074;-84
2022/06/06 07:13:00;;;;;;;10.68;4.47;;;;;;;;;;6182917;23;20069;-84
2022/06/06 07:15:41;;;;;;;11.60;4.40;;;;;;;;;;6183750;23;20014;-85
2022/06/06 07:18:10;;;;;;;9.82;4.82;;;;;;;;;;6183951;23;20006;-83
2022/06/06 07:20:43;;;;;;;7.45;3.92;;;;;;;;;;6182884;23;20053;-84
2022/06/06 07:23:11;;;;;;;9.10;3.42;;;;;;;;;;6184695;23;20067;-84
2022/06/06 07:25:41;;;;;;;8.85;3.83;;;;;;;;;;6185496;23;20062;-83
2022/06/06 07:28:16;;;;;;;6.40;3.43;;;;;;;;;;6186167;23;20013;-84
2022/06/06 07:30:57;;;;;;;10.95;3.83;;;;;;;;;;6185185;23;20002;-83
2022/06/06 07:33:34;;;;;;;9.82;3.65;;;;;;;;;;6184222;23;20022;-83
2022/06/06 07:36:07;;;;;;;7.80;3.40;;;;;;;;;;6185593;23;20006;-84
2022/06/06 07:38:41;;;;;;;7.95;3.42;;;;;;;;;;6184872;23;20057;-83
2022/06/06 07:41:12;;;;;;;9.45;3.60;;;;;;;;;;6185211;23;20005;-84
2022/06/06 07:43:48;;;;;;;9.65;3.38;;;;;;;;;;6184761;23;20018;-84
2022/06/06 07:46:22;;;;;;;9.15;3.42;;;;;;;;;;6185356;23;20021;-84
2022/06/06 07:48:56;;;;;;;8.63;3.25;;;;;;;;;;6185135;23;20065;-85
2022/06/06 07:51:27;;;;;;;9.13;3.28;;;;;;;;;;6184603;23;20045;-85
2022/06/06 07:54:14;;;;;;;9.18;3.50;;;;;;;;;;6183548;23;20006;-85
2022/06/06 07:56:54;;;;;;;5.95;2.90;;;;;;;;;;6183196;23;20941;-84
2022/06/06 07:59:40;;;;;;;9.98;3.00;;;;;;;;;;6184548;23;20061;-84
2022/06/06 08:02:28;;;;;;;9.68;2.90;;;;;;;;;;6184277;23;20021;-85
2022/06/06 08:05:02;;;;;;;8.45;2.83;;;;;;;;;;6182982;23;20014;-83
2022/06/06 08:07:42;;;;;;;9.45;2.70;;;;;;;;;;6180687;23;20226;-83
2022/06/06 08:10:21;;;;;;;8.52;3.17;;;;;;;;;;6179389;23;20022;-83
2022/06/06 08:13:27;;;;;;;10.35;3.22;;;;;;;;;;6180309;23;20010;-83
2022/06/06 08:15:54;;;;;;;4.97;2.63;;;;;;;;;;6180279;23;20038;-83
2022/06/06 08:18:22;;;;;;;6.40;3.00;;;;;;;;;;6179572;23;20111;-83
2022/06/06 08:20:59;;;;;;;5.40;2.67;;;;;;;;;;6183018;23;20033;-85
2022/06/06 08:23:27;;;;;;;5.57;2.90;;;;;;;;;;6182975;23;20053;-84
2022/06/06 08:25:55;;;;;;;8.00;2.58;;;;;;;;;;6182443;23;20042;-84
2022/06/06 08:28:22;;;;;;;7.32;2.70;;;;;;;;;;6183814;23;20022;-84
2022/06/06 08:30:52;;;;;;;10.25;2.72;;;;;;;;;;6183061;23;20024;-84
2022/06/06 08:33:19;;;;;;;9.73;2.80;;;;;;;;;;6183935;23;20021;-84
2022/06/06 08:36:05;;;;;;;7.55;2.72;;;;;;;;;;6183878;23;20022;-84
2022/06/06 08:38:43;;;;;;;4.28;2.65;;;;;;;;;;6183364;23;20014;-83
2022/06/06 08:41:10;;;;;;;7.10;2.65;;;;;;;;;;6182424;23;20022;-84
2022/06/06 08:43:58;;;;;;;6.15;2.88;;;;;;;;;;6181538;23;20116;-83
2022/06/06 08:46:28;;;;;;;7.63;3.42;;;;;;;;;;6180907;23;20077;-83
2022/06/06 08:49:10;;;;;;;3.83;2.50;;;;;;;;;;6180948;23;20042;-83
2022/06/06 08:51:47;;;;;;;7.47;2.30;;;;;;;;;;6183846;23;20045;-83
2022/06/06 08:54:34;;;;;;;7.75;2.25;;;;;;;;;;6180791;23;20078;-83
2022/06/06 08:57:20;;;;;;;8.35;2.65;;;;;;;;;;6179726;23;20014;-82
2022/06/06 08:59:50;;;;;;;5.95;1.95;;;;;;;;;;6182195;23;20017;-83
2022/06/06 09:02:44;;;;;;;6.03;2.42;;;;;;;;;;6178497;23;20025;-83
2022/06/06 09:05:11;;;;;;;;;;;;;;;;;;6177734;23;20061;-84
2022/06/06 09:07:54;;;;;;;7.45;2.13;;;;;;;;;;6179819;23;42128;-83
2022/06/06 09:10:40;;;;;;;4.90;2.00;;;;;;;;;;6181258;23;20014;-82
2022/06/06 09:13:31;;;;;;;5.10;2.03;;;;;;;;;;6180861;23;20198;-83
2022/06/06 09:16:12;;;;;;;2.47;1.50;;;;;;;;;;6178155;23;20022;-83
2022/06/06 09:18:51;;;;;;;6.50;1.95;;;;;;;;;;6153380;23;20203;-83
2022/06/06 09:21:38;;;;;;;4.32;1.60;;;;;;;;;;6153236;23;20018;-83
2022/06/06 09:24:21;;;;;;;4.07;1.75;;;;;;;;;;6153742;23;20002;-83
2022/06/06 09:27:11;;;;;;;4.93;1.90;;;;;;;;;;6178312;23;20022;-83
2022/06/06 09:29:59;;;;;;;5.80;1.60;;;;;;;;;;6142657;23;20022;-83
2022/06/06 09:32:35;;;;;;;3.85;1.77;;;;;;;;;;6151368;23;20018;-83
2022/06/06 09:35:05;;;;;;;4.38;1.70;;;;;;;;;;6153422;23;20025;-83
2022/06/06 09:37:50;;;;;;;6.70;1.90;;;;;;;;;;6154801;23;20016;-83
2022/06/06 09:40:19;;;;;;;6.32;1.75;;;;;;;;;;6179741;23;20018;-82
2022/06/06 09:43:04;;;;;;;8.93;1.73;;;;;;;;;;6151728;23;20025;-85
2022/06/06 09:45:34;;;;;;;5.43;1.65;;;;;;;;;;6152971;23;20088;-84
2022/06/06 09:48:14;;;;;;;6.10;1.50;;;;;;;;;;6150082;23;20038;-84
2022/06/06 09:50:53;;;;;;;2.50;1.58;;;;;;;;;;6148679;23;20019;-84
2022/06/06 09:53:39;;;;;;;11.18;1.70;;;;;;;;;;6162927;23;20022;-84
2022/06/06 09:59:24;;;;;;;4.22;1.60;;;;;;;;;;6175678;23;20042;-84
2022/06/06 10:02:05;;;;;;;2.55;1.42;;;;;;;;;;6175950;23;20018;-85
2022/06/06 10:04:51;;;;;;;7.65;1.77;;;;;;;;;;6173978;23;20010;-85
2022/06/06 10:07:41;;;;;;;5.57;1.85;;;;;;;;;;6174505;23;20065;-85
2022/06/06 10:10:21;;;;;;;2.05;1.38;;;;;;;;;;6169827;23;20018;-83
2022/06/06 10:12:48;;;;;;;3.53;1.35;;;;;;;;;;6173951;23;20042;-84
2022/06/06 10:15:32;;;;;;;4.93;1.50;;;;;;;;;;6175501;23;20042;-84
2022/06/06 10:18:05;;;;;;;9.88;1.70;;;;;;;;;;6175830;23;20065;-84
2022/06/06 10:20:51;;;;;;;5.47;1.48;;;;;;;;;;6174835;23;20021;-84
2022/06/06 10:23:37;;;;;;;2.92;1.92;;;;;;;;;;6173729;23;20014;-84
2022/06/06 10:26:11;;;;;;;3.35;1.65;;;;;;;;;;6174968;23;20026;-84
2022/06/06 10:28:56;;;;;;;3.50;1.50;;;;;;;;;;6177187;23;20113;-83
2022/06/06 10:31:24;;;;;;;4.38;1.63;;;;;;;;;;6174014;23;20022;-83
2022/06/06 10:33:52;;;;;;;5.35;1.45;;;;;;;;;;6173027;23;20025;-83
2022/06/06 10:36:49;;;;;;;6.18;1.50;;;;;;;;;;6175066;23;20014;-83
2022/06/06 10:39:17;;;;;;;4.35;1.55;;;;;;;;;;6166823;23;20021;-84
2022/06/06 10:41:47;;;;;;;4.57;1.70;;;;;;;;;;6173818;23;20038;-83
2022/06/06 10:44:17;;;;;;;3.72;1.45;;;;;;;;;;6173152;23;20030;-84
2022/06/06 10:46:52;;;;;;;6.43;1.98;;;;;;;;;;6174890;23;20036;-83
2022/06/06 10:49:23;;;;;;;6.00;1.35;;;;;;;;;;6172694;23;20014;-83
2022/06/06 10:52:09;;;;;;;5.32;1.58;;;;;;;;;;6178791;23;20495;-83
2022/06/06 10:54:56;;;;;;;5.10;1.55;;;;;;;;;;6175150;23;20026;-83
2022/06/06 10:57:39;;;;;;;3.75;1.60;;;;;;;;;;6170532;23;20026;-83
2022/06/06 11:00:12;;;;;;;8.75;1.90;;;;;;;;;;6177424;23;20011;-84
2022/06/06 11:02:53;;;;;;;6.13;1.55;;;;;;;;;;6175734;23;20014;-83
2022/06/06 11:05:29;;;;;;;6.00;1.50;;;;;;;;;;6178788;23;20018;-83
2022/06/06 11:08:12;;;;;;;7.72;1.55;;;;;;;;;;6175767;23;20022;-82
2022/06/06 11:10:40;;;;;;;;;;;;;;;;;;6175718;23;20020;-83
2022/06/06 11:13:22;;;;;;;9.00;1.67;;;;;;;;;;6171551;23;46227;-83
2022/06/06 11:16:03;;;;;;;4.05;1.67;;;;;;;;;;6158931;23;20020;-84
2022/06/06 11:18:49;;;;;;;9.15;2.10;;;;;;;;;;6162480;23;20022;-84
2022/06/06 11:21:16;;;;;;;4.65;2.10;;;;;;;;;;6161509;23;20835;-83
2022/06/06 11:23:57;;;;;;;6.47;2.97;;;;;;;;;;6161799;23;20020;-84
2022/06/06 11:26:42;;;;;;;5.32;2.25;;;;;;;;;;6163103;23;20114;-84
2022/06/06 11:29:10;;;;;;;5.13;2.10;;;;;;;;;;6163989;23;20046;-83
2022/06/06 11:31:41;;;;;;;5.72;2.60;;;;;;;;;;6165583;23;20025;-84
2022/06/06 11:34:22;;;;;;;6.10;2.65;;;;;;;;;;6159042;23;20025;-84
2022/06/06 11:37:15;;;;;;;5.97;2.58;;;;;;;;;;6159626;23;20050;-84
2022/06/06 11:39:48;;;;;;;10.18;2.72;;;;;;;;;;6160677;23;20010;-84
2022/06/06 11:42:27;;;;;;;5.72;2.85;;;;;;;;;;6161146;23;20014;-85
2022/06/06 11:45:17;;;;;;;6.80;2.97;;;;;;;;;;6165670;23;20024;-85
2022/06/06 11:47:56;;;;;;;6.15;3.25;;;;;;;;;;6177078;23;20081;-84
2022/06/06 11:50:36;;;;;;;4.15;2.70;;;;;;;;;;6176880;23;20007;-84
2022/06/06 11:53:37;;;;;;;3.47;2.30;;;;;;;;;;6174463;23;20018;-84
2022/06/06 11:56:11;;;;;;;4.72;2.90;;;;;;;;;;6173350;23;20018;-83
2022/06/06 11:58:51;;;;;;;8.15;3.05;;;;;;;;;;6175132;23;20018;-84
2022/06/06 12:01:25;;;;;;;9.75;2.90;;;;;;;;;;6173554;23;20357;-83
2022/06/06 12:03:53;;;;;;;4.95;2.80;;;;;;;;;;6170808;23;20041;-84
2022/06/06 12:06:41;;;;;;;6.97;2.80;;;;;;;;;;6168706;23;20036;-83
2022/06/06 12:09:28;;;;;;;5.40;2.50;;;;;;;;;;6170455;23;20029;-83
2022/06/06 12:12:14;;;;;;;11.02;3.92;;;;;;;;;;6164739;23;20014;-84
2022/06/06 12:15:03;;;;;;;6.13;3.30;;;;;;;;;;6172022;23;20026;-84
2022/06/06 12:17:50;;;;;;;7.28;4.03;;;;;;;;;;6176247;23;20084;-84
2022/06/06 12:20:41;;;;;;;6.53;3.97;;;;;;;;;;6171901;23;20025;-84
2022/06/06 12:23:27;;;;;;;11.40;4.50;;;;;;;;;;6172406;23;20074;-82
2022/06/06 12:25:59;;;;;;;10.35;4.20;;;;;;;;;;6168969;23;20014;-82
2022/06/06 12:28:50;;;;;;;7.05;3.42;;;;;;;;;;6168994;23;20057;-83
2022/06/06 12:31:28;;;;;;;8.48;4.30;;;;;;;;;;6167075;23;20032;-84
2022/06/06 12:34:01;;;;;;;14.30;4.40;;;;;;;;;;6172399;23;20014;-84
2022/06/06 12:36:45;;;;;;;9.15;4.28;;;;;;;;;;6173019;23;20010;-84
2022/06/06 12:39:23;;;;;;;8.40;3.38;;;;;;;;;;6175453;23;20046;-84
2022/06/06 12:42:06;;;;;;;4.90;3.10;;;;;;;;;;6175919;23;20026;-85
2022/06/06 12:44:37;;;;;;;9.25;4.00;;;;;;;;;;6178805;23;20030;-84
2022/06/06 12:47:25;;;;;;;8.73;4.00;;;;;;;;;;6179859;23;20017;-84
2022/06/06 12:50:15;;;;;;;7.28;3.55;;;;;;;;;;6178713;23;20014;-84
2022/06/06 12:53:03;;;;;;;6.72;3.35;;;;;;;;;;6180473;23;20089;-83
2022/06/06 12:55:43;;;;;;;5.88;3.05;;;;;;;;;;6179396;23;20017;-84
2022/06/06 12:58:10;;;;;;;8.27;3.15;;;;;;;;;;6178594;23;20760;-84
2022/06/06 13:03:45;;;;;;;9.90;3.72;;;;;;;;;;6182728;23;20022;-84
2022/06/06 13:06:32;;;;;;;6.40;3.22;;;;;;;;;;6179918;23;20337;-83
2022/06/06 13:09:00;;;;;;;11.85;3.45;;;;;;;;;;6181117;23;20006;-83
2022/06/06 13:11:31;;;;;;;8.10;3.35;;;;;;;;;;6175403;23;20037;-84
2022/06/06 13:14:14;;;;;;;8.93;4.20;;;;;;;;;;6177065;23;20073;-84
2022/06/06 13:16:58;;;;;;;6.80;4.57;;;;;;;;;;6179475;23;20010;-84
2022/06/06 13:19:35;;;;;;;8.98;3.83;;;;;;;;;;6180190;23;20034;-84
2022/06/06 13:22:22;;;;;;;11.98;4.78;;;;;;;;;;6178573;23;20014;-84
2022/06/06 13:25:16;;;;;;;10.43;6.10;;;;;;;;;;6167152;23;20018;-83
2022/06/06 13:27:59;;;;;;;12.38;5.90;;;;;;;;;;6166401;23;20014;-84
2022/06/06 13:30:43;;;;;;;11.10;6.47;;;;;;;;;;6169218;23;20026;-84
2022/06/06 13:33:30;;;;;;;11.80;6.50;;;;;;;;;;6168663;23;20022;-85
2022/06/06 13:36:20;;;;;;;7.20;4.75;;;;;;;;;;6166668;23;20017;-84
2022/06/06 13:38:48;;;;;;;11.68;6.90;;;;;;;;;;6170995;23;20014;-84
2022/06/06 13:41:24;;;;;;;13.80;5.80;;;;;;;;;;6168482;23;20037;-84
2022/06/06 13:43:59;;;;;;;12.43;6.70;;;;;;;;;;6168938;23;20038;-83
2022/06/06 13:46:44;;;;;;;10.18;5.70;;;;;;;;;;6168576;23;20786;-84
2022/06/06 13:49:31;;;;;;;15.73;7.93;;;;;;;;;;6164126;23;20049;-84
2022/06/06 13:52:18;;;;;;;12.43;6.05;;;;;;;;;;6164444;23;20074;-85
2022/06/06 13:55:26;;;;;;;6.75;4.90;;;;;;;;;;6151804;23;20014;-84
2022/06/06 13:58:05;;;;;;;5.82;2.72;;;;;;;;;;6166771;23;20795;-85
2022/06/06 14:00:51;;;;;;;6.35;2.80;;;;;;;;;;6167624;23;20025;-84
2022/06/06 14:03:35;;;;;;;4.97;2.08;;;;;;;;;;6168710;23;20028;-85
2022/06/06 14:06:08;;;;;;;3.85;2.00;;;;;;;;;;6172527;23;20081;-84
2022/06/06 14:09:06;;;;;;;3.95;2.00;;;;;;;;;;6172490;23;20077;-84
2022/06/06 14:11:38;;;;;;;3.63;1.98;;;;;;;;;;6167355;23;20018;-85
2022/06/06 14:14:21;;;;;;;2.53;1.60;;;;;;;;;;6170094;23;20010;-85
2022/06/06 14:17:24;;;;;;;3.78;1.70;;;;;;;;;;6170744;23;20108;-84
2022/06/06 14:19:56;;;;;;;10.43;2.45;;;;;;;;;;6171737;23;20014;-84
2022/06/06 14:25:47;;;;;;;3.30;1.80;;;;;;;;;;6172274;23;20026;-84
2022/06/06 14:28:50;;;;;;;2.40;1.52;;;;;;;;;;6172563;23;20085;-84
2022/06/06 14:31:21;;;;;;;3.90;1.33;;;;;;;;;;6156189;23;20010;-85
2022/06/06 14:34:20;;;;;;;1.67;1.10;;;;;;;;;;6177148;23;20020;-84
2022/06/06 14:37:04;;;;;;;1.80;1.52;;;;;;;;;;6158655;23;20751;-84
2022/06/06 14:39:42;;;;;;;1.98;1.23;;;;;;;;;;6163220;23;20022;-84
2022/06/06 14:42:13;;;;;;;5.13;1.23;;;;;;;;;;6166702;23;20046;-85
2022/06/06 14:44:45;;;;;;;4.43;1.35;;;;;;;;;;6168187;23;20017;-84
2022/06/06 14:47:22;;;;;;;2.55;1.38;;;;;;;;;;6170109;23;20037;-84
2022/06/06 14:52:55;;;;;;;4.28;1.42;;;;;;;;;;6177328;23;20044;-85
2022/06/06 14:55:25;;;;;;;5.10;1.70;;;;;;;;;;6173629;23;20066;-84
2022/06/06 14:58:09;;;;;;;4.97;1.92;;;;;;;;;;6170442;23;20033;-85
2022/06/06 15:00:50;;;;;;;1.83;1.30;;;;;;;;;;6171662;23;20049;-85
2022/06/06 15:03:47;;;;;;;2.63;1.27;;;;;;;;;;6174337;23;20024;-84
2022/06/06 15:06:15;;;;;;;;;;;;;;;;;;6174351;23;20014;-84
2022/06/06 15:09:07;;;;;;;4.97;1.50;;;;;;;;;;6166570;23;45848;-85
2022/06/06 15:11:37;;;;;;;4.50;2.15;;;;;;;;;;6171005;23;20010;-85
2022/06/06 15:14:15;;;;;;;7.07;2.10;;;;;;;;;;6171548;23;20018;-83
2022/06/06 15:16:50;;;;;;;5.72;1.90;;;;;;;;;;6171193;23;20022;-84
2022/06/06 15:19:35;;;;;;;10.00;2.55;;;;;;;;;;6166331;23;20029;-84
2022/06/06 15:22:04;;;;;;;6.80;2.50;;;;;;;;;;6169225;23;20025;-84
2022/06/06 15:24:34;;;;;;;7.40;2.83;;;;;;;;;;6171141;23;20022;-85
2022/06/06 15:27:28;;;;;;;4.85;2.67;;;;;;;;;;6171521;23;20052;-85
2022/06/06 15:29:56;;;;;;;7.63;3.10;;;;;;;;;;6169404;23;20029;-84
2022/06/06 15:32:33;;;;;;;9.77;3.20;;;;;;;;;;6167086;23;20018;-85
2022/06/06 15:35:19;;;;;;;5.05;3.10;;;;;;;;;;6167087;23;20463;-84
2022/06/06 15:38:03;;;;;;;9.70;3.15;;;;;;;;;;6169991;23;20041;-84
2022/06/06 15:40:41;;;;;;;8.77;3.22;;;;;;;;;;6176308;23;20077;-86
2022/06/06 15:43:29;;;;;;;6.07;2.67;;;;;;;;;;6180206;23;20022;-84
2022/06/06 15:46:09;;;;;;;7.05;3.65;;;;;;;;;;6175015;23;20010;-85
2022/06/06 15:48:37;;;;;;;9.55;3.67;;;;;;;;;;6166013;23;20041;-84
2022/06/06 15:51:09;;;;;;;13.70;3.47;;;;;;;;;;6167502;23;20068;-84
2022/06/06 15:53:47;;;;;;;5.47;3.10;;;;;;;;;;6168860;23;20089;-84
2022/06/06 15:56:33;;;;;;;7.95;3.50;;;;;;;;;;6166770;23;20041;-84
2022/06/06 15:59:09;;;;;;;9.68;3.60;;;;;;;;;;6166668;23;20021;-85
2022/06/06 16:01:40;;;;;;;6.88;3.17;;;;;;;;;;6170648;23;20010;-85